Bronson, Ohio
Current Conditions -  °F | °C
As of 9:53 PM on Friday 21 Nov 2014 (Local Time) from KLPR Reporting Station
Clear Clear  
Wind Chill:   Ceiling: Unl
Heat Index: 18°   Visibility: 10mi
Dew Point:   Wind: 8mph
Humidity: 68%   Direction: 180°S
Pressure: 30.41"   Gusts: NA
Location:  41.2186°N, 82.5851°W
Report Text: KLPR 220253Z AUTO 18007KT 10SM CLR M08/M13 A3041 RMK AO2 SLP310 T10781128 58019 TSNO
Loading
Personal Weather Stations






























Interactive Weather Map New forecast layout! Learn more

10-Day Weather Forecast

Advertisements
Track Severe Weather on mobile